createdAt,value
2022-10-24T00:05:20.595Z,15.84
2022-10-24T00:15:22.638Z,16.55
2022-10-24T00:25:24.607Z,14.72
2022-10-24T00:35:26.730Z,14.68
2022-10-24T00:55:44.069Z,15.29
2022-10-24T01:06:11.267Z,12.16
2022-10-24T01:16:30.089Z,13.58
2022-10-24T01:26:34.931Z,16.11
2022-10-24T01:36:48.162Z,13.82
2022-10-24T01:47:03.317Z,13.91
2022-10-24T01:57:05.790Z,16.11
2022-10-24T02:07:12.209Z,17.29
2022-10-24T02:17:14.999Z,15.77
2022-10-24T02:27:24.596Z,12.67
2022-10-24T02:37:29.377Z,14.60
2022-10-24T02:47:32.980Z,16.63
2022-10-24T02:57:34.868Z,15.61
2022-10-24T03:07:36.982Z,15.10
2022-10-24T03:17:39.047Z,16.63
2022-10-24T03:27:40.954Z,15.35
2022-10-24T03:37:43.259Z,14.86
2022-10-24T03:47:45.268Z,16.45
2022-10-24T03:57:47.980Z,16.95
2022-10-24T04:07:50.307Z,14.76
2022-10-24T04:17:52.281Z,14.51
2022-10-24T04:27:54.238Z,16.33
2022-10-24T04:37:56.286Z,15.21
2022-10-24T04:47:58.408Z,14.92
2022-10-24T04:58:00.777Z,16.60
2022-10-24T05:08:03.320Z,15.03
2022-10-24T05:18:05.848Z,14.68
2022-10-24T05:28:07.893Z,16.68
2022-10-24T05:38:09.989Z,15.79
2022-10-24T05:48:15.115Z,16.51
2022-10-24T05:58:21.251Z,17.46
2022-10-24T06:08:23.473Z,16.23
2022-10-24T06:18:25.473Z,16.03
2022-10-24T06:28:27.960Z,16.69
2022-10-24T06:38:29.981Z,15.62
2022-10-24T06:48:31.886Z,16.88
2022-10-24T06:58:37.211Z,16.26
2022-10-24T07:08:39.470Z,16.16
2022-10-24T07:18:42.126Z,16.96
2022-10-24T07:28:46.731Z,15.00
2022-10-24T07:38:50.789Z,16.10
2022-10-24T07:48:54.104Z,17.91
2022-10-24T07:58:56.976Z,15.88
2022-10-24T08:09:07.443Z,16.91
2022-10-24T08:19:12.729Z,18.42
2022-10-24T08:29:21.886Z,17.22
2022-10-24T08:39:24.074Z,17.81
2022-10-24T08:49:41.903Z,18.62
2022-10-24T08:59:45.346Z,17.16
2022-10-24T09:09:51.329Z,19.14
2022-10-24T09:20:22.021Z,20.22
2022-10-24T09:30:30.116Z,18.75
2022-10-24T09:40:35.829Z,18.19
2022-10-24T09:50:43.887Z,20.07
2022-10-24T10:00:59.615Z,21.06
2022-10-24T10:11:25.946Z,19.33
2022-10-24T10:21:28.332Z,18.41
2022-10-24T10:31:41.704Z,20.31
2022-10-24T10:41:51.819Z,22.93
2022-10-24T10:52:07.249Z,22.52
2022-10-24T11:02:31.280Z,20.63
2022-10-24T11:13:59.653Z,19.58
2022-10-24T11:24:29.342Z,21.15
2022-10-24T11:34:35.558Z,21.64
2022-10-24T11:45:07.835Z,20.02
2022-10-24T11:55:31.802Z,19.36
2022-10-24T12:07:17.965Z,21.32
2022-10-24T12:17:30.732Z,22.66
2022-10-24T12:27:40.233Z,20.65
2022-10-24T12:37:46.661Z,19.30
2022-10-24T12:57:59.361Z,20.95
2022-10-24T13:08:23.587Z,18.83
2022-10-24T13:19:00.611Z,19.81
2022-10-24T13:29:03.561Z,22.30
2022-10-24T13:39:12.300Z,21.58
2022-10-24T13:49:34.078Z,19.19
2022-10-24T13:59:38.709Z,19.79
2022-10-24T14:09:43.435Z,21.69
2022-10-24T14:19:56.724Z,20.96
2022-10-24T14:30:04.944Z,18.60
2022-10-24T14:40:16.242Z,19.56
2022-10-24T14:50:39.950Z,21.62
2022-10-24T15:00:42.121Z,20.53
2022-10-24T15:10:44.387Z,19.90
2022-10-24T15:20:48.626Z,21.40
2022-10-24T15:30:50.624Z,20.02
2022-10-24T15:40:54.756Z,19.30
2022-10-24T15:51:00.221Z,20.87
2022-10-24T16:01:02.315Z,21.38
2022-10-24T16:11:07.603Z,19.85
2022-10-24T16:21:19.699Z,18.85
2022-10-24T16:31:24.746Z,20.26
2022-10-24T16:41:42.661Z,18.93
2022-10-24T16:51:47.199Z,15.95
2022-10-24T17:01:49.618Z,16.52
2022-10-24T17:11:51.783Z,18.77
2022-10-24T17:21:54.644Z,19.55
2022-10-24T17:31:58.012Z,19.94
2022-10-24T17:42:00.287Z,18.47
2022-10-24T17:52:02.550Z,17.62
2022-10-24T18:02:05.064Z,18.56
2022-10-24T18:12:09.021Z,19.81
2022-10-24T18:22:11.404Z,20.39
2022-10-24T18:32:15.104Z,18.97
2022-10-24T18:42:30.778Z,18.13
2022-10-24T18:52:52.736Z,19.68
2022-10-24T19:03:33.866Z,20.15
2022-10-24T19:13:36.277Z,18.35
2022-10-24T19:23:40.040Z,17.83
2022-10-24T19:33:42.902Z,19.38
2022-10-24T19:43:45.400Z,19.84
2022-10-24T19:53:49.906Z,20.03
2022-10-24T20:03:53.381Z,18.37
2022-10-24T20:13:55.649Z,17.79
2022-10-24T20:23:58.187Z,19.31
2022-10-24T20:34:06.968Z,19.77
2022-10-24T20:44:11.820Z,20.02
2022-10-24T20:54:15.672Z,18.32
2022-10-24T21:04:20.734Z,17.75
2022-10-24T21:14:23.179Z,19.24
2022-10-24T21:24:25.510Z,19.78
2022-10-24T21:34:30.162Z,20.07
2022-10-24T21:44:50.821Z,18.80
2022-10-24T21:54:52.947Z,19.36
2022-10-24T22:04:54.881Z,19.69
2022-10-24T22:14:56.833Z,19.93
2022-10-24T22:24:59.107Z,18.34
2022-10-24T22:47:10.797Z,19.66
2022-10-24T22:57:13.192Z,20.37
2022-10-24T23:07:27.816Z,18.97
2022-10-24T23:17:32.915Z,16.16
2022-10-24T23:27:40.033Z,16.98
2022-10-24T23:37:44.911Z,19.01
2022-10-24T23:48:02.236Z,19.90
2022-10-24T23:58:04.344Z,20.34
